Mexican Hat, Utah
Current Conditions -  °F | °C
As of 2:35 AM on Thursday 27 Nov 2014 (Local Time) from KBDG Reporting Station
Clear Clear  
Wind Chill: 28°   Ceiling: Unl
Heat Index: 35°   Visibility: 10mi
Dew Point: 21°   Wind: 9mph
Humidity: 55%   Direction: 20°NNE
Pressure: 30.52"   Gusts: NA
Location:  37.15°N, 109.86°W
Report Text: KBDG 270935Z AUTO 02008KT 10SM CLR 02/M06 A3052 RMK AO1 T00181063
Loading
Personal Weather Stations






























Interactive Weather Map New forecast layout! Learn more

10-Day Weather Forecast

Advertisements
Track Severe Weather on mobile